createdAt,value
2023-04-17T00:02:13.777Z,10.89
2023-04-17T00:04:41.253Z,10.93
2023-04-17T00:07:08.129Z,10.90
2023-04-17T00:09:34.816Z,10.78
2023-04-17T00:12:01.420Z,10.97
2023-04-17T00:14:28.246Z,10.77
2023-04-17T00:16:55.173Z,10.89
2023-04-17T00:19:21.833Z,10.96
2023-04-17T00:21:48.431Z,11.01
2023-04-17T00:24:15.027Z,10.97
2023-04-17T00:26:41.747Z,10.93
2023-04-17T00:29:08.367Z,11.02
2023-04-17T00:31:35.002Z,11.06
2023-04-17T00:34:01.887Z,11.20
2023-04-17T00:36:30.732Z,11.38
2023-04-17T00:38:58.470Z,11.08
2023-04-17T00:41:25.064Z,11.10
2023-04-17T00:43:51.642Z,10.95
2023-04-17T00:46:18.648Z,11.01
2023-04-17T00:48:45.706Z,10.87
2023-04-17T00:51:12.453Z,10.90
2023-04-17T00:53:39.689Z,10.85
2023-04-17T00:56:06.979Z,10.91
2023-04-17T00:58:36.366Z,10.84
2023-04-17T01:01:04.940Z,10.73
2023-04-17T01:03:32.947Z,10.85
2023-04-17T01:05:59.704Z,11.11
2023-04-17T01:08:26.331Z,10.96
2023-04-17T01:10:53.210Z,10.93
2023-04-17T01:13:19.985Z,10.91
2023-04-17T01:15:46.764Z,10.91
2023-04-17T01:18:13.419Z,10.92
2023-04-17T01:20:40.068Z,10.88
2023-04-17T01:23:06.749Z,10.75
2023-04-17T01:25:33.557Z,10.83
2023-04-17T01:28:00.199Z,10.85
2023-04-17T01:30:29.903Z,10.79
2023-04-17T01:32:56.540Z,10.74
2023-04-17T01:35:23.590Z,10.68
2023-04-17T01:37:50.466Z,10.72
2023-04-17T01:40:17.047Z,10.57
2023-04-17T01:42:43.842Z,10.65
2023-04-17T01:45:10.578Z,10.71
2023-04-17T01:47:37.209Z,10.92
2023-04-17T01:50:04.195Z,10.68
2023-04-17T01:52:30.829Z,10.65
2023-04-17T01:54:57.500Z,10.47
2023-04-17T01:57:24.370Z,10.44
2023-04-17T01:59:51.219Z,10.45
2023-04-17T02:02:17.994Z,10.70
2023-04-17T02:04:44.715Z,10.68
2023-04-17T02:07:11.869Z,10.74
2023-04-17T02:09:38.568Z,10.68
2023-04-17T02:12:05.569Z,10.66
2023-04-17T02:14:32.181Z,10.49
2023-04-17T02:16:58.990Z,10.29
2023-04-17T02:19:25.608Z,10.56
2023-04-17T02:21:52.192Z,10.44
2023-04-17T02:24:18.879Z,10.55
2023-04-17T02:26:45.734Z,10.50
2023-04-17T02:29:12.591Z,10.50
2023-04-17T02:31:40.668Z,10.48
2023-04-17T02:34:07.405Z,10.70
2023-04-17T02:36:34.162Z,10.85
2023-04-17T02:39:00.861Z,10.68
2023-04-17T02:41:27.493Z,10.66
2023-04-17T02:43:54.253Z,10.70
2023-04-17T02:46:20.882Z,10.41
2023-04-17T02:48:47.591Z,10.49
2023-04-17T02:51:14.237Z,10.57
2023-04-17T02:53:40.880Z,10.25
2023-04-17T02:56:08.176Z,10.26
2023-04-17T02:58:34.996Z,10.26
2023-04-17T03:01:03.005Z,10.46
2023-04-17T03:03:29.857Z,10.43
2023-04-17T03:05:57.275Z,10.43
2023-04-17T03:08:24.663Z,10.34
2023-04-17T03:10:51.254Z,10.38
2023-04-17T03:13:18.040Z,10.57
2023-04-17T03:15:44.743Z,10.53
2023-04-17T03:18:11.356Z,10.55
2023-04-17T03:20:38.018Z,10.49
2023-04-17T03:23:04.756Z,10.30
2023-04-17T03:25:31.393Z,10.39
2023-04-17T03:27:57.976Z,10.43
2023-04-17T03:30:25.125Z,10.40
2023-04-17T03:32:51.829Z,10.24
2023-04-17T03:35:18.655Z,10.20
2023-04-17T03:37:45.330Z,10.38
2023-04-17T03:40:12.054Z,10.64
2023-04-17T03:42:38.915Z,10.62
2023-04-17T03:45:06.121Z,10.56
2023-04-17T03:47:32.781Z,10.51
2023-04-17T03:49:59.471Z,10.42
2023-04-17T03:52:26.225Z,10.58
2023-04-17T03:54:52.940Z,10.22
2023-04-17T03:57:19.584Z,10.36
2023-04-17T03:59:46.193Z,10.30
2023-04-17T04:02:13.013Z,10.33
2023-04-17T04:04:40.216Z,10.35
2023-04-17T04:07:06.912Z,10.50
2023-04-17T04:09:33.533Z,10.17
2023-04-17T04:12:00.286Z,10.24
2023-04-17T04:14:27.031Z,10.25
2023-04-17T04:16:53.639Z,10.32
2023-04-17T04:19:20.270Z,10.45
2023-04-17T04:21:47.010Z,10.18
2023-04-17T04:24:13.660Z,10.11
2023-04-17T04:26:40.400Z,10.05
2023-04-17T04:29:07.555Z,10.37
2023-04-17T04:31:34.660Z,10.41
2023-04-17T04:34:01.349Z,10.52
2023-04-17T04:36:28.103Z,10.31
2023-04-17T04:38:54.795Z,10.32
2023-04-17T04:41:21.432Z,10.32
2023-04-17T04:43:48.282Z,10.26
2023-04-17T04:46:15.058Z,10.17
2023-04-17T04:48:42.849Z,10.36
2023-04-17T04:51:09.832Z,10.34
2023-04-17T04:53:36.499Z,10.65
2023-04-17T04:56:03.367Z,10.40
2023-04-17T04:58:29.945Z,10.44
2023-04-17T05:00:56.768Z,10.27
2023-04-17T05:03:23.621Z,10.39
2023-04-17T05:05:50.596Z,10.20
2023-04-17T05:08:17.306Z,10.11
2023-04-17T05:10:44.146Z,10.34
2023-04-17T05:13:10.792Z,10.18
2023-04-17T05:15:37.445Z,10.35
2023-04-17T05:18:04.123Z,10.30
2023-04-17T05:20:30.772Z,10.24
2023-04-17T05:22:57.453Z,10.09
2023-04-17T05:25:24.571Z,10.19
2023-04-17T05:27:51.360Z,10.23
2023-04-17T05:30:18.176Z,10.24
2023-04-17T05:32:44.860Z,10.23
2023-04-17T05:35:11.486Z,10.14
2023-04-17T05:37:40.242Z,10.10
2023-04-17T05:40:07.816Z,10.22
2023-04-17T05:42:34.763Z,10.29
2023-04-17T05:45:01.542Z,10.52
2023-04-17T05:47:28.251Z,10.30
2023-04-17T05:49:55.057Z,10.30
2023-04-17T05:52:21.772Z,10.51
2023-04-17T05:54:48.409Z,10.49
2023-04-17T05:57:15.131Z,10.30
2023-04-17T05:59:41.794Z,10.38
2023-04-17T06:02:08.531Z,10.53
2023-04-17T06:04:35.511Z,10.56
2023-04-17T06:07:02.373Z,10.45
2023-04-17T06:09:29.182Z,10.58
2023-04-17T06:11:55.870Z,10.73
2023-04-17T06:14:22.504Z,10.72
2023-04-17T06:16:49.260Z,10.56
2023-04-17T06:19:16.003Z,10.79
2023-04-17T06:21:42.649Z,10.79
2023-04-17T06:24:09.310Z,10.96
2023-04-17T06:26:35.931Z,10.85
2023-04-17T06:29:02.531Z,10.89
2023-04-17T06:31:29.292Z,11.13
2023-04-17T06:33:56.085Z,10.97
2023-04-17T06:36:22.723Z,11.17
2023-04-17T06:38:49.668Z,11.35
2023-04-17T06:41:16.425Z,11.28
2023-04-17T06:43:43.151Z,11.53
2023-04-17T06:46:09.863Z,11.34
2023-04-17T06:48:36.750Z,11.42
2023-04-17T06:51:03.622Z,11.54
2023-04-17T06:53:30.362Z,11.63
2023-04-17T06:55:56.953Z,11.69
2023-04-17T06:58:23.667Z,11.67
2023-04-17T07:00:50.446Z,11.66
2023-04-17T07:03:17.259Z,11.71
2023-04-17T07:05:44.573Z,11.94
2023-04-17T07:08:11.393Z,11.98
2023-04-17T07:10:37.997Z,12.06
2023-04-17T07:13:04.717Z,12.12
2023-04-17T07:15:31.420Z,12.25
2023-04-17T07:17:58.222Z,12.41
2023-04-17T07:20:24.946Z,12.32
2023-04-17T07:22:51.665Z,12.42
2023-04-17T07:25:18.446Z,12.50
2023-04-17T07:27:45.165Z,12.63
2023-04-17T07:30:12.040Z,12.82
2023-04-17T07:32:38.674Z,13.03
2023-04-17T07:35:05.734Z,13.04
2023-04-17T07:37:34.326Z,13.13
2023-04-17T07:40:00.996Z,13.39
2023-04-17T07:42:27.672Z,13.77
2023-04-17T07:44:54.268Z,13.96
2023-04-17T07:47:21.028Z,14.28
2023-04-17T07:49:47.763Z,14.50
2023-04-17T07:52:15.095Z,14.34
2023-04-17T07:54:41.871Z,14.45
2023-04-17T07:57:08.498Z,14.57
2023-04-17T07:59:35.182Z,14.87
2023-04-17T08:02:01.900Z,15.00
2023-04-17T08:04:28.719Z,14.97
2023-04-17T08:06:55.482Z,15.06
2023-04-17T08:09:22.140Z,15.13
2023-04-17T08:11:57.096Z,15.20
2023-04-17T08:14:24.727Z,15.02
2023-04-17T08:16:51.582Z,15.13
2023-04-17T08:19:18.252Z,15.34
2023-04-17T08:21:47.421Z,15.52
2023-04-17T08:24:14.132Z,15.20
2023-04-17T08:26:40.732Z,15.16
2023-04-17T08:29:07.467Z,15.25
2023-04-17T08:31:34.211Z,15.32
2023-04-17T08:34:12.811Z,15.29
2023-04-17T08:36:41.203Z,15.19
2023-04-17T08:39:07.959Z,15.26
2023-04-17T08:41:42.273Z,15.31
2023-04-17T08:44:08.987Z,15.42
2023-04-17T08:46:36.546Z,14.97
2023-04-17T08:49:03.319Z,15.26
2023-04-17T08:51:30.029Z,15.44
2023-04-17T08:53:56.823Z,15.71
2023-04-17T08:56:23.434Z,15.55
2023-04-17T08:58:50.216Z,15.83
2023-04-17T09:01:16.901Z,15.89
2023-04-17T09:03:45.655Z,16.17
2023-04-17T09:06:14.062Z,16.10
2023-04-17T09:08:55.555Z,16.23
2023-04-17T09:11:22.603Z,16.19
2023-04-17T09:13:49.344Z,15.95
2023-04-17T09:16:16.071Z,15.98
2023-04-17T09:18:43.200Z,16.15
2023-04-17T09:21:10.386Z,16.28
2023-04-17T09:23:56.584Z,15.87
2023-04-17T09:26:25.687Z,15.89
2023-04-17T09:29:06.459Z,15.83
2023-04-17T09:31:36.788Z,15.63
2023-04-17T09:34:06.194Z,15.59
2023-04-17T09:36:37.233Z,16.06
2023-04-17T09:39:22.920Z,15.91
2023-04-17T09:41:50.264Z,16.03
2023-04-17T09:44:27.710Z,15.68
2023-04-17T09:46:54.691Z,15.85
2023-04-17T09:49:40.285Z,15.87
2023-04-17T09:52:07.147Z,16.25
2023-04-17T09:54:34.660Z,15.97
2023-04-17T09:57:01.536Z,16.19
2023-04-17T09:59:28.785Z,16.04
2023-04-17T10:01:55.697Z,16.10
2023-04-17T10:04:22.960Z,16.26
2023-04-17T10:06:50.114Z,16.25
2023-04-17T10:09:16.796Z,16.04
2023-04-17T10:11:47.942Z,15.69
2023-04-17T10:14:22.888Z,15.90
2023-04-17T10:16:49.582Z,16.09
2023-04-17T10:19:36.557Z,15.69
2023-04-17T10:22:18.211Z,15.66
2023-04-17T10:24:49.895Z,15.49
2023-04-17T10:27:25.755Z,15.81
2023-04-17T10:29:56.574Z,16.22
2023-04-17T10:32:24.654Z,16.25
2023-04-17T10:34:53.044Z,16.11
2023-04-17T10:37:20.625Z,16.15
2023-04-17T10:39:53.121Z,15.99
2023-04-17T10:42:21.117Z,15.62
2023-04-17T10:44:48.750Z,15.64
2023-04-17T10:47:20.860Z,16.20
2023-04-17T10:50:08.250Z,15.80
2023-04-17T10:52:38.623Z,16.03
2023-04-17T10:55:23.380Z,16.14
2023-04-17T10:57:58.891Z,16.16
2023-04-17T11:00:49.232Z,16.27
2023-04-17T11:03:16.842Z,16.12
2023-04-17T11:05:47.211Z,15.91
2023-04-17T11:08:14.380Z,15.89
2023-04-17T11:10:41.218Z,15.82
2023-04-17T11:13:07.919Z,16.01
2023-04-17T11:15:35.463Z,16.48
2023-04-17T11:18:03.906Z,16.58
2023-04-17T11:20:33.225Z,16.43
2023-04-17T11:23:04.537Z,16.52
2023-04-17T11:25:32.553Z,16.60
2023-04-17T11:28:01.889Z,16.64
2023-04-17T11:30:33.420Z,16.43
2023-04-17T11:33:05.741Z,16.55
2023-04-17T11:35:35.295Z,16.89
2023-04-17T11:38:05.830Z,17.21
2023-04-17T11:40:32.671Z,17.10
2023-04-17T11:43:08.963Z,17.14
2023-04-17T11:45:37.060Z,16.63
2023-04-17T11:48:04.443Z,16.59
2023-04-17T11:50:32.459Z,16.94
2023-04-17T11:53:05.259Z,16.72
2023-04-17T11:55:34.989Z,16.78
2023-04-17T11:58:06.003Z,16.99
2023-04-17T12:00:33.037Z,17.00
2023-04-17T12:03:02.804Z,16.62
2023-04-17T12:05:30.959Z,16.48
2023-04-17T12:08:01.513Z,16.29
2023-04-17T12:10:41.314Z,16.58
2023-04-17T12:13:09.289Z,16.63
2023-04-17T12:15:36.346Z,16.70
2023-04-17T12:18:04.405Z,16.51
2023-04-17T12:20:35.568Z,16.28
2023-04-17T12:23:03.192Z,16.59
2023-04-17T12:25:30.642Z,16.51
2023-04-17T12:27:57.513Z,16.40
2023-04-17T12:30:24.240Z,16.37
2023-04-17T12:32:50.980Z,16.58
2023-04-17T12:35:21.899Z,16.80
2023-04-17T12:37:50.099Z,16.20
2023-04-17T12:40:23.834Z,15.87
2023-04-17T12:42:51.379Z,16.23
2023-04-17T12:45:18.489Z,16.25
2023-04-17T12:47:45.329Z,16.35
2023-04-17T12:50:12.554Z,16.43
2023-04-17T12:52:40.057Z,16.20
2023-04-17T12:55:07.752Z,16.13
2023-04-17T12:57:35.472Z,16.38
2023-04-17T13:00:02.462Z,16.35
2023-04-17T13:02:29.255Z,16.43
2023-04-17T13:04:56.111Z,16.53
2023-04-17T13:07:22.998Z,16.57
2023-04-17T13:09:49.817Z,16.54
2023-04-17T13:12:16.470Z,16.55
2023-04-17T13:14:43.064Z,16.76
2023-04-17T13:17:09.848Z,16.71
2023-04-17T13:19:36.563Z,16.81
2023-04-17T13:22:03.347Z,16.68
2023-04-17T13:24:30.140Z,16.92
2023-04-17T13:26:59.633Z,17.08
2023-04-17T13:29:26.305Z,16.36
2023-04-17T13:31:53.060Z,16.53
2023-04-17T13:34:19.994Z,16.62
2023-04-17T13:36:47.464Z,16.39
2023-04-17T13:39:14.608Z,16.48
2023-04-17T13:41:41.365Z,16.68
2023-04-17T13:44:08.116Z,16.70
2023-04-17T13:46:34.966Z,16.14
2023-04-17T13:49:01.562Z,15.97
2023-04-17T13:51:28.211Z,16.08
2023-04-17T13:53:55.652Z,16.26
2023-04-17T13:56:22.268Z,16.46
2023-04-17T13:58:48.863Z,16.41
2023-04-17T14:01:15.551Z,16.11
2023-04-17T14:03:44.588Z,16.08
2023-04-17T14:06:12.921Z,16.00
2023-04-17T14:08:40.645Z,16.04
2023-04-17T14:11:08.001Z,16.15
2023-04-17T14:13:34.763Z,16.19
2023-04-17T14:16:01.632Z,15.63
2023-04-17T14:18:28.351Z,15.14
2023-04-17T14:20:54.971Z,15.34
2023-04-17T14:23:21.947Z,15.32
2023-04-17T14:25:48.524Z,15.51
2023-04-17T14:28:15.146Z,15.69
2023-04-17T14:30:41.743Z,16.11
2023-04-17T14:33:08.443Z,15.97
2023-04-17T14:35:35.019Z,15.85
2023-04-17T14:38:01.749Z,15.85
2023-04-17T14:40:28.341Z,15.97
2023-04-17T14:42:55.038Z,16.13
2023-04-17T14:45:21.866Z,16.17
2023-04-17T14:47:48.662Z,16.05
2023-04-17T14:50:15.276Z,15.64
2023-04-17T14:52:42.050Z,15.66
2023-04-17T14:55:09.294Z,15.95
2023-04-17T14:57:36.031Z,15.72
2023-04-17T15:00:02.912Z,15.79
2023-04-17T15:02:29.931Z,15.78
2023-04-17T15:04:56.634Z,15.79
2023-04-17T15:07:23.227Z,15.45
2023-04-17T15:09:49.837Z,15.93
2023-04-17T15:12:16.432Z,15.96
2023-04-17T15:14:43.073Z,15.77
2023-04-17T15:17:09.754Z,15.89
2023-04-17T15:19:36.373Z,15.92
2023-04-17T15:22:03.154Z,16.07
2023-04-17T15:24:31.542Z,16.03
2023-04-17T15:26:58.179Z,15.79
2023-04-17T15:29:24.830Z,15.69
2023-04-17T15:31:51.458Z,15.72
2023-04-17T15:34:18.447Z,16.08
2023-04-17T15:36:45.063Z,16.20
2023-04-17T15:39:11.930Z,16.21
2023-04-17T15:41:41.971Z,16.25
2023-04-17T15:44:08.582Z,15.93
2023-04-17T15:46:35.307Z,15.76
2023-04-17T15:49:08.749Z,15.72
2023-04-17T15:51:35.710Z,15.84
2023-04-17T15:54:02.413Z,16.03
2023-04-17T15:56:29.069Z,15.62
2023-04-17T15:58:55.700Z,15.53
2023-04-17T16:01:25.398Z,15.18
2023-04-17T16:03:52.443Z,15.17
2023-04-17T16:06:19.304Z,15.09
2023-04-17T16:08:46.650Z,14.95
2023-04-17T16:11:13.225Z,15.29
2023-04-17T16:13:39.932Z,15.25
2023-04-17T16:16:06.778Z,15.51
2023-04-17T16:18:33.488Z,15.16
2023-04-17T16:21:00.128Z,15.29
2023-04-17T16:23:26.905Z,15.28
2023-04-17T16:25:53.566Z,15.27
2023-04-17T16:28:20.197Z,15.30
2023-04-17T16:30:46.830Z,15.23
2023-04-17T16:33:13.552Z,15.28
2023-04-17T16:35:40.191Z,15.51
2023-04-17T16:38:06.778Z,15.29
2023-04-17T16:40:33.487Z,14.87
2023-04-17T16:43:00.165Z,14.84
2023-04-17T16:45:26.760Z,14.86
2023-04-17T16:47:53.429Z,14.80
2023-04-17T16:50:20.174Z,15.12
2023-04-17T16:52:49.264Z,15.10
2023-04-17T16:55:15.944Z,14.92
2023-04-17T16:57:43.577Z,14.82
2023-04-17T17:00:11.392Z,15.00
2023-04-17T17:02:38.058Z,14.98
2023-04-17T17:05:05.376Z,15.08
2023-04-17T17:07:32.003Z,14.90
2023-04-17T17:09:58.764Z,15.25
2023-04-17T17:12:25.387Z,15.04
2023-04-17T17:14:51.982Z,15.17
2023-04-17T17:17:20.071Z,14.84
2023-04-17T17:19:46.704Z,14.71
2023-04-17T17:22:13.335Z,14.60
2023-04-17T17:24:39.952Z,14.64
2023-04-17T17:27:06.576Z,14.40
2023-04-17T17:29:33.327Z,14.53
2023-04-17T17:31:59.956Z,14.45
2023-04-17T17:34:27.415Z,14.37
2023-04-17T17:36:54.315Z,14.86
2023-04-17T17:39:23.318Z,14.38
2023-04-17T17:41:50.057Z,14.24
2023-04-17T17:44:16.976Z,14.11
2023-04-17T17:46:43.852Z,14.25
2023-04-17T17:49:10.506Z,14.19
2023-04-17T17:51:37.145Z,14.25
2023-04-17T17:54:03.968Z,14.24
2023-04-17T17:56:30.660Z,14.41
2023-04-17T17:58:57.289Z,14.44
2023-04-17T18:01:24.002Z,14.27
2023-04-17T18:03:50.782Z,14.23
2023-04-17T18:06:17.574Z,14.18
2023-04-17T18:08:44.194Z,14.02
2023-04-17T18:11:10.815Z,13.86
2023-04-17T18:13:37.569Z,14.03
2023-04-17T18:16:04.500Z,14.06
2023-04-17T18:18:31.222Z,14.02
2023-04-17T18:20:57.861Z,14.18
2023-04-17T18:23:24.546Z,14.17
2023-04-17T18:26:01.494Z,14.31
2023-04-17T18:28:28.975Z,14.25
2023-04-17T18:30:55.631Z,14.12
2023-04-17T18:33:22.391Z,13.84
2023-04-17T18:35:48.987Z,13.70
2023-04-17T18:38:15.697Z,13.88
2023-04-17T18:40:42.333Z,13.62
2023-04-17T18:43:08.975Z,14.07
2023-04-17T18:45:37.776Z,13.79
2023-04-17T18:48:04.747Z,13.79
2023-04-17T18:50:31.458Z,13.80
2023-04-17T18:52:58.037Z,13.80
2023-04-17T18:55:24.716Z,13.86
2023-04-17T18:57:51.447Z,13.70
2023-04-17T19:00:18.189Z,13.69
2023-04-17T19:02:45.208Z,13.67
2023-04-17T19:05:11.963Z,13.79
2023-04-17T19:07:38.590Z,13.62
2023-04-17T19:10:05.778Z,13.75
2023-04-17T19:12:32.430Z,13.58
2023-04-17T19:14:59.130Z,13.46
2023-04-17T19:17:25.778Z,13.69
2023-04-17T19:19:52.411Z,13.58
2023-04-17T19:22:19.057Z,13.52
2023-04-17T19:24:45.670Z,13.40
2023-04-17T19:27:12.328Z,13.43
2023-04-17T19:29:38.988Z,13.60
2023-04-17T19:32:05.664Z,13.44
2023-04-17T19:34:32.360Z,13.29
2023-04-17T19:36:59.019Z,13.19
2023-04-17T19:39:27.155Z,13.11
2023-04-17T19:41:53.730Z,13.13
2023-04-17T19:44:20.430Z,13.28
2023-04-17T19:46:47.279Z,13.18
2023-04-17T19:49:14.315Z,13.07
2023-04-17T19:51:41.227Z,13.22
2023-04-17T19:54:07.841Z,13.39
2023-04-17T19:56:34.468Z,13.29
2023-04-17T19:59:02.184Z,13.04
2023-04-17T20:01:30.302Z,13.04
2023-04-17T20:03:57.667Z,12.89
2023-04-17T20:06:24.846Z,13.14
2023-04-17T20:08:51.449Z,13.33
2023-04-17T20:11:18.051Z,13.29
2023-04-17T20:13:46.352Z,13.13
2023-04-17T20:16:12.979Z,13.11
2023-04-17T20:18:39.653Z,13.29
2023-04-17T20:21:06.244Z,13.21
2023-04-17T20:23:33.435Z,12.97
2023-04-17T20:26:00.153Z,13.07
2023-04-17T20:28:26.718Z,12.78
2023-04-17T20:30:53.396Z,12.72
2023-04-17T20:33:20.207Z,12.81
2023-04-17T20:35:46.845Z,12.74
2023-04-17T20:38:13.500Z,12.87
2023-04-17T20:40:40.149Z,13.00
2023-04-17T20:43:07.163Z,12.90
2023-04-17T20:45:34.932Z,12.82
2023-04-17T20:48:01.583Z,12.67
2023-04-17T20:50:28.350Z,12.71
2023-04-17T20:52:55.026Z,12.69
2023-04-17T20:55:24.533Z,12.61
2023-04-17T20:57:51.222Z,12.76
2023-04-17T21:00:17.974Z,12.53
2023-04-17T21:02:44.710Z,12.68
2023-04-17T21:05:11.395Z,12.71
2023-04-17T21:07:38.298Z,12.86
2023-04-17T21:10:05.470Z,12.79
2023-04-17T21:12:32.109Z,12.67
2023-04-17T21:14:58.707Z,12.74
2023-04-17T21:17:25.392Z,12.65
2023-04-17T21:19:52.281Z,13.10
2023-04-17T21:22:19.046Z,12.90
2023-04-17T21:24:45.662Z,12.89
2023-04-17T21:27:12.335Z,12.47
2023-04-17T21:29:38.952Z,12.52
2023-04-17T21:32:05.740Z,12.75
2023-04-17T21:34:32.418Z,13.05
2023-04-17T21:37:00.119Z,12.91
2023-04-17T21:39:26.781Z,12.66
2023-04-17T21:41:53.400Z,12.60
2023-04-17T21:44:20.042Z,12.38
2023-04-17T21:46:46.665Z,12.55
2023-04-17T21:49:13.404Z,12.63
2023-04-17T21:51:40.098Z,12.58
2023-04-17T21:54:08.440Z,12.79
2023-04-17T21:56:35.662Z,12.53
2023-04-17T21:59:02.380Z,12.55
2023-04-17T22:01:29.150Z,12.41
2023-04-17T22:03:55.797Z,12.35
2023-04-17T22:06:22.401Z,12.55
2023-04-17T22:08:49.059Z,12.48
2023-04-17T22:11:15.675Z,12.29
2023-04-17T22:13:42.254Z,12.52
2023-04-17T22:16:08.917Z,12.41
2023-04-17T22:18:35.633Z,12.33
2023-04-17T22:21:02.268Z,12.28
2023-04-17T22:23:28.981Z,12.27
2023-04-17T22:25:55.587Z,12.44
2023-04-17T22:28:22.204Z,12.45
2023-04-17T22:30:52.003Z,12.40
2023-04-17T22:33:18.669Z,12.42
2023-04-17T22:35:45.274Z,12.22
2023-04-17T22:38:11.917Z,12.36
2023-04-17T22:40:38.525Z,12.56
2023-04-17T22:43:05.122Z,12.44
2023-04-17T22:45:31.979Z,12.24
2023-04-17T22:47:58.766Z,12.19
2023-04-17T22:50:25.624Z,12.22
2023-04-17T22:52:52.320Z,12.25
2023-04-17T22:55:18.978Z,12.04
2023-04-17T22:57:45.683Z,12.01
2023-04-17T23:00:12.847Z,12.20
2023-04-17T23:02:39.520Z,12.13
2023-04-17T23:05:07.123Z,12.13
2023-04-17T23:07:34.002Z,12.21
2023-04-17T23:10:00.686Z,11.96
2023-04-17T23:12:27.328Z,12.11
2023-04-17T23:14:53.952Z,12.27
2023-04-17T23:17:20.700Z,11.98
2023-04-17T23:19:47.364Z,11.89
2023-04-17T23:22:14.029Z,11.96
2023-04-17T23:24:40.726Z,11.81
2023-04-17T23:27:10.131Z,11.58
2023-04-17T23:29:36.787Z,11.55
2023-04-17T23:32:03.538Z,11.67
2023-04-17T23:34:30.211Z,11.95
2023-04-17T23:36:56.847Z,11.60
2023-04-17T23:39:23.817Z,11.95
2023-04-17T23:41:50.494Z,11.68
2023-04-17T23:44:17.091Z,11.49
2023-04-17T23:46:43.745Z,11.62
2023-04-17T23:49:10.379Z,11.32
2023-04-17T23:51:37.086Z,11.08
2023-04-17T23:54:03.815Z,10.86
2023-04-17T23:56:30.505Z,10.98
2023-04-17T23:58:57.592Z,11.10
